Observation data for Roaring Springs on 10/17/2019      Previous  Date       Current Mesonet Observations  Soil Data  Daily Summary Page  Observations in Plain Language
KRRS 170500Z 20010KT 09/02 A3009 RMK A01 T00920017  RH  060%=      5-min Rain = 0
KRRS 170505Z 21009KT 09/02 A3009 RMK A01 T00930016  RH  060%=      5-min Rain = 0
KRRS 170510Z 21008KT 09/02 A3009 RMK A01 T00940015  RH  059%=      5-min Rain = 0
KRRS 170515Z 21008KT 10/01 A3009 RMK A01 T00960014  RH  057%=      5-min Rain = 0
KRRS 170520Z 21008KT 10/01 A3009 RMK A01 T00990013  RH  056%=      5-min Rain = 0
KRRS 170525Z 22006KT 10/01 A3009 RMK A01 T00990013  RH  056%=      5-min Rain = 0
KRRS 170530Z 23005KT 10/01 A3009 RMK A01 T00970012  RH  056%=      5-min Rain = 0
KRRS 170535Z 23006KT 10/01 A3009 RMK A01 T00950012  RH  057%=      5-min Rain = 0
KRRS 170540Z 23006KT 10/01 A3009 RMK A01 T00950011  RH  057%=      5-min Rain = 0
KRRS 170545Z 24006KT 10/01 A3009 RMK A01 T00970010  RH  055%=      5-min Rain = 0
KRRS 170550Z 23007KT 09/01 A3009 RMK A01 T00940011  RH  057%=      5-min Rain = 0
KRRS 170555Z 22007KT 09/01 A3009 RMK A01 T00890011  RH  059%=      5-min Rain = 0
KRRS 170600Z 22006KT 09/01 A3009 RMK A01 T00870010  RH  059%=      5-min Rain = 0
KRRS 170605Z 22007KT 09/01 A3009 RMK A01 T00870010  RH  059%=      5-min Rain = 0
KRRS 170610Z 22007KT 09/01 A3009 RMK A01 T00880010  RH  059%=      5-min Rain = 0
KRRS 170615Z 22007KT 09/01 A3009 RMK A01 T00850011  RH  060%=      5-min Rain = 0
KRRS 170620Z 22006KT 08/01 A3009 RMK A01 T00840010  RH  061%=      5-min Rain = 0
KRRS 170625Z 22006KT 08/01 A3009 RMK A01 T00840010  RH  060%=      5-min Rain = 0
KRRS 170630Z 22007KT 08/01 A3008 RMK A01 T00830010  RH  061%=      5-min Rain = 0
KRRS 170635Z 22007KT 08/01 A3008 RMK A01 T00810010  RH  061%=      5-min Rain = 0
KRRS 170640Z 22007KT 08/01 A3008 RMK A01 T00780010  RH  063%=      5-min Rain = 0
KRRS 170645Z 21007KT 08/01 A3008 RMK A01 T00750010  RH  064%=      5-min Rain = 0
KRRS 170650Z 21008KT 07/01 A3008 RMK A01 T00730010  RH  065%=      5-min Rain = 0
KRRS 170655Z 20009KT 07/01 A3007 RMK A01 T00690011  RH  067%=      5-min Rain = 0
KRRS 170700Z 21009KT 07/01 A3007 RMK A01 T00650010  RH  069%=      5-min Rain = 0
KRRS 170705Z 21009KT 06/01 A3007 RMK A01 T00630010  RH  070%=      5-min Rain = 0
KRRS 170710Z 20010KT 06/01 A3007 RMK A01 T00630010  RH  070%=      5-min Rain = 0
KRRS 170715Z 20011KT 06/01 A3007 RMK A01 T00620010  RH  070%=      5-min Rain = 0
KRRS 170720Z 20010KT 06/01 A3007 RMK A01 T00590010  RH  071%=      5-min Rain = 0
KRRS 170725Z 20010KT 06/01 A3007 RMK A01 T00630011  RH  070%=      5-min Rain = 0
KRRS 170730Z 20009KT 06/01 A3007 RMK A01 T00610010  RH  071%=      5-min Rain = 0
KRRS 170735Z 21009KT 06/01 A3007 RMK A01 T00590010  RH  072%=      5-min Rain = 0
KRRS 170740Z 21009KT 06/01 A3007 RMK A01 T00610009  RH  071%=      5-min Rain = 0
KRRS 170745Z 22008KT 07/01 A3007 RMK A01 T00650010  RH  069%=      5-min Rain = 0
KRRS 170750Z 23008KT 07/01 A3007 RMK A01 T00710010  RH  066%=      5-min Rain = 0
KRRS 170755Z 23008KT 07/01 A3007 RMK A01 T00730009  RH  065%=      5-min Rain = 0
KRRS 170800Z 23008KT 07/01 A3007 RMK A01 T00730008  RH  065%=      5-min Rain = 0
KRRS 170805Z 23008KT 07/01 A3006 RMK A01 T00730007  RH  064%=      5-min Rain = 0
KRRS 170810Z 23007KT 07/01 A3006 RMK A01 T00730008  RH  064%=      5-min Rain = 0
KRRS 170815Z 24007KT 07/01 A3006 RMK A01 T00730007  RH  063%=      5-min Rain = 0
KRRS 170820Z 23007KT 08/01 A3006 RMK A01 T00770006  RH  062%=      5-min Rain = 0
KRRS 170825Z 23006KT 08/01 A3006 RMK A01 T00780006  RH  061%=      5-min Rain = 0
KRRS 170830Z 22005KT 08/01 A3006 RMK A01 T00800005  RH  060%=      5-min Rain = 0
KRRS 170835Z 21006KT 08/01 A3006 RMK A01 T00820005  RH  059%=      5-min Rain = 0
KRRS 170840Z 21005KT 09/00 A3006 RMK A01 T00860004  RH  057%=      5-min Rain = 0
KRRS 170845Z 19006KT 09/00 A3006 RMK A01 T00870004  RH  057%=      5-min Rain = 0
KRRS 170850Z 18005KT 08/01 A3006 RMK A01 T00840005  RH  058%=      5-min Rain = 0
KRRS 170855Z 18005KT 08/00 A3006 RMK A01 T00840004  RH  058%=      5-min Rain = 0
KRRS 170900Z 18005KT 09/01 A3006 RMK A01 T00860005  RH  058%=      5-min Rain = 0
KRRS 170905Z 18005KT 09/01 A3006 RMK A01 T00850005  RH  058%=      5-min Rain = 0
KRRS 170910Z 18005KT 08/01 A3006 RMK A01 T00840006  RH  059%=      5-min Rain = 0
KRRS 170915Z 18006KT 08/01 A3006 RMK A01 T00840007  RH  059%=      5-min Rain = 0
KRRS 170920Z 18006KT 08/01 A3006 RMK A01 T00820006  RH  060%=      5-min Rain = 0
KRRS 170925Z 18006KT 08/01 A3006 RMK A01 T00790006  RH  061%=      5-min Rain = 0
KRRS 170930Z 19007KT 08/01 A3006 RMK A01 T00750008  RH  063%=      5-min Rain = 0
KRRS 170935Z 18007KT 07/01 A3006 RMK A01 T00690009  RH  066%=      5-min Rain = 0
KRRS 170940Z 19007KT 07/01 A3006 RMK A01 T00680008  RH  066%=      5-min Rain = 0
KRRS 170945Z 18007KT 07/01 A3005 RMK A01 T00670008  RH  067%=      5-min Rain = 0
KRRS 170950Z 18006KT 07/01 A3005 RMK A01 T00680007  RH  066%=      5-min Rain = 0
KRRS 170955Z 17005KT 07/01 A3005 RMK A01 T00680007  RH  066%=      5-min Rain = 0
KRRS 171000Z 17004KT 07/01 A3005 RMK A01 T00650006  RH  067%=      5-min Rain = 0
KRRS 171005Z 17004KT 07/01 A3005 RMK A01 T00650005  RH  066%=      5-min Rain = 0
KRRS 171010Z 18003KT 06/00 A3005 RMK A01 T00620004  RH  067%=      5-min Rain = 0
KRRS 171015Z 17003KT 06/00 A3005 RMK A01 T00610004  RH  068%=      5-min Rain = 0
KRRS 171020Z 17005KT 06/00 A3006 RMK A01 T00610004  RH  068%=      5-min Rain = 0
KRRS 171025Z 17006KT 06/01 A3006 RMK A01 T00610005  RH  068%=      5-min Rain = 0
KRRS 171030Z 18006KT 06/01 A3006 RMK A01 T00550005  RH  071%=      5-min Rain = 0
KRRS 171035Z 19005KT 05/00 A3006 RMK A01 T00460004  RH  075%=      5-min Rain = 0
KRRS 171040Z 19005KT 04/01 A3005 RMK A01 T00440005  RH  076%=      5-min Rain = 0
KRRS 171045Z 19007KT 05/01 A3005 RMK A01 T00480005  RH  074%=      5-min Rain = 0
KRRS 171050Z 18007KT 05/01 A3006 RMK A01 T00480006  RH  075%=      5-min Rain = 0
KRRS 171055Z 19006KT 04/00 A3005 RMK A01 T00440004  RH  076%=      5-min Rain = 0
KRRS 171100Z 20006KT 04/00 A3005 RMK A01 T00390003  RH  079%=      5-min Rain = 0
KRRS 171105Z 21006KT 04/00 A3005 RMK A01 T00400004  RH  078%=      5-min Rain = 0
KRRS 171110Z 20008KT 04/01 A3005 RMK A01 T00430005  RH  078%=      5-min Rain = 0
KRRS 171115Z 20008KT 04/01 A3005 RMK A01 T00440006  RH  077%=      5-min Rain = 0
KRRS 171120Z 20008KT 04/01 A3005 RMK A01 T00430006  RH  078%=      5-min Rain = 0
KRRS 171125Z 20008KT 04/01 A3005 RMK A01 T00430005  RH  077%=      5-min Rain = 0
KRRS 171130Z 20009KT 05/01 A3004 RMK A01 T00460006  RH  076%=      5-min Rain = 0
KRRS 171135Z 19010KT 05/01 A3004 RMK A01 T00520009  RH  074%=      5-min Rain = 0
KRRS 171140Z 19010KT 06/01 A3004 RMK A01 T00630010  RH  070%=      5-min Rain = 0
KRRS 171145Z 19011KT 06/01 A3004 RMK A01 T00630010  RH  070%=      5-min Rain = 0
KRRS 171150Z 19010KT 06/01 A3004 RMK A01 T00600010  RH  071%=      5-min Rain = 0
KRRS 171155Z 20009KT 05/01 A3004 RMK A01 T00480007  RH  076%=      5-min Rain = 0
KRRS 171200Z 20008KT 04/01 A3004 RMK A01 T00350005  RH  082%=      5-min Rain = 0
KRRS 171205Z 21008KT 03/01 A3004 RMK A01 T00330006  RH  084%=      5-min Rain = 0
KRRS 171210Z 21009KT 03/01 A3004 RMK A01 T00340007  RH  083%=      5-min Rain = 0
KRRS 171215Z 21008KT 03/01 A3003 RMK A01 T00340007  RH  083%=      5-min Rain = 0
KRRS 171220Z 20009KT 04/01 A3003 RMK A01 T00360008  RH  083%=      5-min Rain = 0
KRRS 171225Z 19008KT 04/01 A3003 RMK A01 T00380009  RH  083%=      5-min Rain = 0
KRRS 171230Z 18008KT 04/01 A3003 RMK A01 T00370009  RH  084%=      5-min Rain = 0
KRRS 171235Z 18009KT 04/01 A3003 RMK A01 T00410010  RH  081%=      5-min Rain = 0
KRRS 171240Z 20007KT 04/01 A3002 RMK A01 T00410007  RH  080%=      5-min Rain = 0
KRRS 171245Z 21007KT 04/01 A3003 RMK A01 T00360007  RH  082%=      5-min Rain = 0
KRRS 171250Z 23007KT 04/01 A3003 RMK A01 T00360007  RH  083%=      5-min Rain = 0
KRRS 171255Z 23008KT 04/01 A3003 RMK A01 T00390009  RH  081%=      5-min Rain = 0
KRRS 171300Z 22007KT 04/01 A3003 RMK A01 T00410010  RH  081%=      5-min Rain = 0
KRRS 171305Z 20008KT 04/01 A3003 RMK A01 T00430011  RH  081%=      5-min Rain = 0
KRRS 171310Z 19009KT 05/01 A3003 RMK A01 T00470013  RH  080%=      5-min Rain = 0
KRRS 171315Z 20009KT 05/01 A3003 RMK A01 T00490013  RH  079%=      5-min Rain = 0
KRRS 171320Z 20009KT 05/01 A3003 RMK A01 T00510013  RH  077%=      5-min Rain = 0
KRRS 171325Z 21008KT 05/01 A3003 RMK A01 T00480012  RH  078%=      5-min Rain = 0
KRRS 171330Z 20009KT 06/01 A3003 RMK A01 T00550014  RH  076%=      5-min Rain = 0
KRRS 171335Z 20008KT 06/02 A3003 RMK A01 T00640016  RH  073%=      5-min Rain = 0
KRRS 171340Z 20007KT 07/02 A3004 RMK A01 T00660017  RH  072%=      5-min Rain = 0
KRRS 171345Z 19006KT 07/02 A3004 RMK A01 T00690019  RH  071%=      5-min Rain = 0
KRRS 171350Z 19006KT 07/02 A3004 RMK A01 T00730019  RH  070%=      5-min Rain = 0
KRRS 171355Z 20006KT 08/02 A3004 RMK A01 T00780021  RH  068%=      5-min Rain = 0
KRRS 171400Z 20004KT 08/02 A3004 RMK A01 T00800023  RH  068%=      5-min Rain = 0
KRRS 171405Z 21004KT 08/03 A3004 RMK A01 T00830025  RH  068%=      5-min Rain = 0
KRRS 171410Z 22005KT 09/03 A3004 RMK A01 T00860028  RH  068%=      5-min Rain = 0
KRRS 171415Z 22004KT 09/03 A3004 RMK A01 T00930033  RH  067%=      5-min Rain = 0
KRRS 171420Z 21005KT 10/04 A3004 RMK A01 T01010035  RH  065%=      5-min Rain = 0
KRRS 171425Z 21005KT 11/04 A3004 RMK A01 T01080036  RH  062%=      5-min Rain = 0
KRRS 171430Z 22005KT 12/04 A3004 RMK A01 T01160039  RH  060%=      5-min Rain = 0
KRRS 171435Z 21005KT 12/04 A3004 RMK A01 T01240040  RH  058%=      5-min Rain = 0
KRRS 171440Z 20005KT 13/04 A3004 RMK A01 T01340042  RH  054%=      5-min Rain = 0
KRRS 171445Z 21007KT 15/04 A3004 RMK A01 T01460037  RH  049%=      5-min Rain = 0
KRRS 171450Z 22010KT 16/03 A3004 RMK A01 T01600026  RH  041%=      5-min Rain = 0
KRRS 171455Z 22009KT 17/03 A3004 RMK A01 T01660025  RH  039%=      5-min Rain = 0
KRRS 171500Z 22009KT 17/02 A3004 RMK A01 T01700022  RH  038%=      5-min Rain = 0
KRRS 171505Z 22009KT 17/02 A3004 RMK A01 T01740022  RH  037%=      5-min Rain = 0
KRRS 171510Z 24011KT 18/02 A3003 RMK A01 T01780020  RH  035%=      5-min Rain = 0
KRRS 171515Z 23013KT 18/02 A3003 RMK A01 T01790015  RH  034%=      5-min Rain = 0
KRRS 171520Z 23012KT 18/02 A3003 RMK A01 T01820017  RH  034%=      5-min Rain = 0
KRRS 171525Z 23012G17KT 18/02 A3003 RMK A01 T01830015  RH  033%=      5-min Rain = 0
KRRS 171530Z 23010G15KT 19/02 A3003 RMK A01 T01860019  RH  033%=      5-min Rain = 0
KRRS 171535Z 23012KT 19/02 A3003 RMK A01 T01880019  RH  033%=      5-min Rain = 0
KRRS 171540Z 23012KT 19/02 A3003 RMK A01 T01880017  RH  032%=      5-min Rain = 0
KRRS 171545Z 22012KT 19/02 A3003 RMK A01 T01900019  RH  032%=      5-min Rain = 0
KRRS 171550Z 21013KT 19/02 A3003 RMK A01 T01930017  RH  031%=      5-min Rain = 0
KRRS 171555Z 22012KT 19/02 A3003 RMK A01 T01940017  RH  031%=      5-min Rain = 0
KRRS 171600Z 22013G18KT 20/02 A3003 RMK A01 T01960017  RH  031%=      5-min Rain = 0
KRRS 171605Z 22014KT 20/02 A3003 RMK A01 T01970016  RH  030%=      5-min Rain = 0
KRRS 171610Z 21013KT 20/02 A3003 RMK A01 T01990018  RH  030%=      5-min Rain = 0
KRRS 171615Z 22013KT 20/02 A3003 RMK A01 T02040020  RH  030%=      5-min Rain = 0
KRRS 171620Z 22013G18KT 21/02 A3003 RMK A01 T02050020  RH  030%=      5-min Rain = 0
KRRS 171625Z 23013G19KT 21/02 A3003 RMK A01 T02080022  RH  030%=      5-min Rain = 0
KRRS 171630Z 21014G19KT 21/02 A3002 RMK A01 T02070020  RH  029%=      5-min Rain = 0
KRRS 171635Z 22012G17KT 21/02 A3002 RMK A01 T02100024  RH  030%=      5-min Rain = 0
KRRS 171640Z 23014G21KT 21/02 A3002 RMK A01 T02110022  RH  029%=      5-min Rain = 0
KRRS 171645Z 22014G19KT 21/02 A3002 RMK A01 T02100021  RH  029%=      5-min Rain = 0
KRRS 171650Z 22012G17KT 21/02 A3002 RMK A01 T02120024  RH  029%=      5-min Rain = 0
KRRS 171655Z 23013KT 22/02 A3002 RMK A01 T02150023  RH  029%=      5-min Rain = 0
KRRS 171700Z 21012G18KT 22/02 A3002 RMK A01 T02150024  RH  029%=      5-min Rain = 0
KRRS 171705Z 21011G17KT 22/03 A3002 RMK A01 T02210027  RH  028%=      5-min Rain = 0
KRRS 171710Z 22013KT 22/02 A3001 RMK A01 T02190022  RH  028%=      5-min Rain = 0
KRRS 171715Z 22013G19KT 22/03 A3001 RMK A01 T02190027  RH  029%=      5-min Rain = 0
KRRS 171720Z 21011KT 22/03 A3001 RMK A01 T02200028  RH  029%=      5-min Rain = 0
KRRS 171725Z 21012G17KT 22/03 A3001 RMK A01 T02240030  RH  029%=      5-min Rain = 0
KRRS 171730Z 20012KT 23/03 A3001 RMK A01 T02270034  RH  029%=      5-min Rain = 0
KRRS 171735Z 22011G16KT 23/04 A30 RMK A01 T02280035  RH  029%=      5-min Rain = 0
KRRS 171740Z 22011G17KT 23/03 A30 RMK A01 T02260034  RH  029%=      5-min Rain = 0
KRRS 171745Z 21013G18KT 23/04 A30 RMK A01 T02300037  RH  029%=      5-min Rain = 0
KRRS 171750Z 21012G18KT 23/04 A2999 RMK A01 T02310038  RH  029%=      5-min Rain = 0
KRRS 171755Z 20011KT 23/04 A2999 RMK A01 T02340041  RH  029%=      5-min Rain = 0
KRRS 171800Z 20013KT 24/05 A2999 RMK A01 T02390049  RH  030%=      5-min Rain = 0
KRRS 171805Z 20012KT 24/05 A2998 RMK A01 T02370048  RH  030%=      5-min Rain = 0
KRRS 171810Z 20011G16KT 24/05 A2998 RMK A01 T02390046  RH  029%=      5-min Rain = 0
KRRS 171815Z 19014G20KT 24/05 A2998 RMK A01 T02380049  RH  030%=      5-min Rain = 0
KRRS 171820Z 18014KT 24/05 A2997 RMK A01 T02370051  RH  031%=      5-min Rain = 0
KRRS 171825Z 18012KT 24/05 A2997 RMK A01 T02400051  RH  030%=      5-min Rain = 0
KRRS 171830Z 21012G19KT 24/06 A2997 RMK A01 T02430056  RH  031%=      5-min Rain = 0
KRRS 171835Z 20012G17KT 24/06 A2997 RMK A01 T02430056  RH  031%=      5-min Rain = 0
KRRS 171840Z 20012G18KT 24/06 A2996 RMK A01 T02440057  RH  031%=      5-min Rain = 0
KRRS 171845Z 21012KT 25/06 A2996 RMK A01 T02460058  RH  031%=      5-min Rain = 0
KRRS 171850Z 18012G18KT 25/06 A2995 RMK A01 T02490064  RH  031%=      5-min Rain = 0
KRRS 171855Z 18014G19KT 25/07 A2995 RMK A01 T02510065  RH  031%=      5-min Rain = 0
KRRS 171900Z 18012G17KT 25/07 A2995 RMK A01 T02480066  RH  032%=      5-min Rain = 0
KRRS 171905Z 19013G19KT 25/07 A2994 RMK A01 T02510067  RH  032%=      5-min Rain = 0
KRRS 171910Z 20012G19KT 25/07 A2994 RMK A01 T02500065  RH  031%=      5-min Rain = 0
KRRS 171915Z 20015KT 25/06 A2994 RMK A01 T02500060  RH  030%=      5-min Rain = 0
KRRS 171920Z 19014G19KT 25/06 A2993 RMK A01 T02490058  RH  030%=      5-min Rain = 0
KRRS 171925Z 20014G21KT 25/06 A2993 RMK A01 T02490059  RH  030%=      5-min Rain = 0
KRRS 171930Z 21012G19KT 25/06 A2993 RMK A01 T02490059  RH  030%=      5-min Rain = 0
KRRS 171935Z 20011G16KT 25/06 A2993 RMK A01 T02500058  RH  030%=      5-min Rain = 0
KRRS 171940Z 18012KT 25/06 A2993 RMK A01 T02510057  RH  029%=      5-min Rain = 0
KRRS 171945Z 20012G17KT 25/06 A2992 RMK A01 T02530058  RH  029%=      5-min Rain = 0
KRRS 171950Z 21012KT 25/06 A2992 RMK A01 T02530059  RH  029%=      5-min Rain = 0
KRRS 171955Z 20013G18KT 25/06 A2992 RMK A01 T02540057  RH  029%=      5-min Rain = 0
KRRS 172000Z 21014G19KT 25/06 A2991 RMK A01 T02540055  RH  029%=      5-min Rain = 0
KRRS 172005Z 19013G19KT 26/06 A2991 RMK A01 T02550056  RH  029%=      5-min Rain = 0
KRRS 172010Z 19014KT 26/06 A2991 RMK A01 T02560059  RH  029%=      5-min Rain = 0
KRRS 172015Z 20014G19KT 26/06 A2991 RMK A01 T02560059  RH  029%=      5-min Rain = 0
KRRS 172020Z 21013G21KT 26/06 A2991 RMK A01 T02590062  RH  029%=      5-min Rain = 0
KRRS 172025Z 20015KT 26/06 A299 RMK A01 T02590061  RH  029%=      5-min Rain = 0
KRRS 172030Z 19012G17KT 26/06 A299 RMK A01 T02580062  RH  029%=      5-min Rain = 0
KRRS 172035Z 20013G19KT 26/07 A299 RMK A01 T02590065  RH  030%=      5-min Rain = 0
KRRS 172040Z 20013G19KT 26/06 A299 RMK A01 T02590063  RH  029%=      5-min Rain = 0
KRRS 172045Z 20014G19KT 26/06 A2989 RMK A01 T02570062  RH  029%=      5-min Rain = 0
KRRS 172050Z 19014G19KT 26/06 A2989 RMK A01 T02590064  RH  029%=      5-min Rain = 0
KRRS 172055Z 19013G18KT 26/07 A2989 RMK A01 T02580065  RH  030%=      5-min Rain = 0
KRRS 172100Z 20013G20KT 26/07 A2989 RMK A01 T02620067  RH  030%=      5-min Rain = 0
KRRS 172105Z 21014KT 26/06 A2988 RMK A01 T02590063  RH  029%=      5-min Rain = 0
KRRS 172110Z 19014KT 26/07 A2988 RMK A01 T02600066  RH  030%=      5-min Rain = 0
KRRS 172115Z 19015G21KT 26/07 A2988 RMK A01 T02590065  RH  030%=      5-min Rain = 0
KRRS 172120Z 19013KT 26/07 A2988 RMK A01 T02610067  RH  030%=      5-min Rain = 0
KRRS 172125Z 20013KT 26/06 A2988 RMK A01 T02630064  RH  029%=      5-min Rain = 0
KRRS 172130Z 18011KT 26/07 A2988 RMK A01 T02630066  RH  029%=      5-min Rain = 0
KRRS 172135Z 19014G20KT 26/06 A2988 RMK A01 T02620062  RH  029%=      5-min Rain = 0
KRRS 172140Z 20015G20KT 26/06 A2988 RMK A01 T02590057  RH  028%=      5-min Rain = 0
KRRS 172145Z 20013KT 26/06 A2988 RMK A01 T02600060  RH  029%=      5-min Rain = 0
KRRS 172150Z 19013KT 26/06 A2988 RMK A01 T02610063  RH  029%=      5-min Rain = 0
KRRS 172155Z 18013G19KT 26/06 A2987 RMK A01 T02610063  RH  029%=      5-min Rain = 0
KRRS 172200Z 18012KT 26/06 A2987 RMK A01 T02590062  RH  029%=      5-min Rain = 0
KRRS 172205Z 18011G16KT 26/06 A2987 RMK A01 T02600062  RH  029%=      5-min Rain = 0
KRRS 172210Z 18011KT 26/06 A2987 RMK A01 T02600062  RH  029%=      5-min Rain = 0
KRRS 172215Z 18013G18KT 26/06 A2987 RMK A01 T02590061  RH  029%=      5-min Rain = 0
KRRS 172220Z 17012G17KT 26/06 A2987 RMK A01 T02570061  RH  029%=      5-min Rain = 0
KRRS 172225Z 18012G17KT 26/06 A2987 RMK A01 T02570061  RH  029%=      5-min Rain = 0
KRRS 172230Z 18012KT 26/06 A2987 RMK A01 T02560062  RH  030%=      5-min Rain = 0
KRRS 172235Z 18013KT 26/06 A2986 RMK A01 T02560063  RH  030%=      5-min Rain = 0
KRRS 172240Z 17012KT 26/06 A2986 RMK A01 T02550064  RH  030%=      5-min Rain = 0
KRRS 172245Z 18012KT 25/06 A2986 RMK A01 T02530064  RH  030%=      5-min Rain = 0
KRRS 172250Z 18011KT 25/07 A2986 RMK A01 T02510066  RH  031%=      5-min Rain = 0
KRRS 172255Z 18012KT 25/07 A2986 RMK A01 T02470068  RH  032%=      5-min Rain = 0
KRRS 172300Z 17011KT 25/07 A2986 RMK A01 T02480068  RH  032%=      5-min Rain = 0
KRRS 172305Z 17010KT 25/07 A2986 RMK A01 T02500070  RH  033%=      5-min Rain = 0
KRRS 172310Z 18012KT 25/07 A2986 RMK A01 T02490071  RH  033%=      5-min Rain = 0
KRRS 172315Z 18010KT 25/07 A2986 RMK A01 T02480073  RH  034%=      5-min Rain = 0
KRRS 172320Z 18011G16KT 25/07 A2986 RMK A01 T02480073  RH  034%=      5-min Rain = 0
KRRS 172325Z 17010KT 25/07 A2986 RMK A01 T02460072  RH  034%=      5-min Rain = 0
KRRS 172330Z 17008KT 25/07 A2986 RMK A01 T02450074  RH  034%=      5-min Rain = 0
KRRS 172335Z 17008KT 24/08 A2986 RMK A01 T02430075  RH  035%=      5-min Rain = 0
KRRS 172340Z 17008KT 24/08 A2986 RMK A01 T02410076  RH  036%=      5-min Rain = 0
KRRS 172345Z 17007KT 24/08 A2986 RMK A01 T02370077  RH  037%=      5-min Rain = 0
KRRS 172350Z 17007KT 23/08 A2986 RMK A01 T02320079  RH  038%=      5-min Rain = 0
KRRS 172355Z 17006KT 23/08 A2985 RMK A01 T02290080  RH  039%=      5-min Rain = 0
KRRS 180000Z 16007KT 22/08 A2985 RMK A01 T02240081  RH  041%=      5-min Rain = 0
KRRS 180005Z 16007KT 22/08 A2985 RMK A01 T02200081  RH  042%=      5-min Rain = 0
KRRS 180010Z 16007KT 22/08 A2985 RMK A01 T02160082  RH  043%=      5-min Rain = 0
KRRS 180015Z 16007KT 21/08 A2985 RMK A01 T02130082  RH  044%=      5-min Rain = 0
KRRS 180020Z 16006KT 21/08 A2985 RMK A01 T02100081  RH  045%=      5-min Rain = 0
KRRS 180025Z 15007KT 21/08 A2985 RMK A01 T02080081  RH  045%=      5-min Rain = 0
KRRS 180030Z 15007KT 21/08 A2985 RMK A01 T02060081  RH  046%=      5-min Rain = 0
KRRS 180035Z 15008KT 20/08 A2985 RMK A01 T02030080  RH  046%=      5-min Rain = 0
KRRS 180040Z 15007KT 20/08 A2985 RMK A01 T02020080  RH  047%=      5-min Rain = 0
KRRS 180045Z 15007KT 20/08 A2985 RMK A01 T02010080  RH  047%=      5-min Rain = 0
KRRS 180050Z 15008KT 20/08 A2985 RMK A01 T02000080  RH  047%=      5-min Rain = 0
KRRS 180055Z 15008KT 20/08 A2985 RMK A01 T01980081  RH  048%=      5-min Rain = 0
KRRS 180100Z 15007KT 20/08 A2985 RMK A01 T01960081  RH  049%=      5-min Rain = 0
KRRS 180105Z 15008KT 19/08 A2985 RMK A01 T01940081  RH  049%=      5-min Rain = 0
KRRS 180110Z 15008KT 19/08 A2984 RMK A01 T01930082  RH  050%=      5-min Rain = 0
KRRS 180115Z 15008KT 19/08 A2985 RMK A01 T01910082  RH  051%=      5-min Rain = 0
KRRS 180120Z 15007KT 19/08 A2985 RMK A01 T01890082  RH  051%=      5-min Rain = 0
KRRS 180125Z 15008KT 19/08 A2985 RMK A01 T01850083  RH  053%=      5-min Rain = 0
KRRS 180130Z 15009KT 18/08 A2984 RMK A01 T01840083  RH  053%=      5-min Rain = 0
KRRS 180135Z 15010KT 19/08 A2984 RMK A01 T01850081  RH  052%=      5-min Rain = 0
KRRS 180140Z 15010KT 19/07 A2984 RMK A01 T01860074  RH  049%=      5-min Rain = 0
KRRS 180145Z 16008KT 19/07 A2985 RMK A01 T01850072  RH  049%=      5-min Rain = 0
KRRS 180150Z 17008KT 18/07 A2985 RMK A01 T01800074  RH  051%=      5-min Rain = 0
KRRS 180155Z 16007KT 18/07 A2985 RMK A01 T01750074  RH  053%=      5-min Rain = 0
KRRS 180200Z 16007KT 17/07 A2985 RMK A01 T01720070  RH  052%=      5-min Rain = 0
KRRS 180205Z 16007KT 17/06 A2985 RMK A01 T01700064  RH  051%=      5-min Rain = 0
KRRS 180210Z 16008KT 17/06 A2985 RMK A01 T01700056  RH  048%=      5-min Rain = 0
KRRS 180215Z 16008KT 17/05 A2985 RMK A01 T01700048  RH  045%=      5-min Rain = 0
KRRS 180220Z 16008KT 17/04 A2985 RMK A01 T01700041  RH  043%=      5-min Rain = 0
KRRS 180225Z 17008KT 17/04 A2985 RMK A01 T01710036  RH  041%=      5-min Rain = 0
KRRS 180230Z 17008KT 17/03 A2985 RMK A01 T01700032  RH  041%=      5-min Rain = 0
KRRS 180235Z 17008KT 17/03 A2985 RMK A01 T01700031  RH  040%=      5-min Rain = 0
KRRS 180240Z 17008KT 17/03 A2986 RMK A01 T01680032  RH  041%=      5-min Rain = 0
KRRS 180245Z 17008KT 17/03 A2986 RMK A01 T01660034  RH  042%=      5-min Rain = 0
KRRS 180250Z 17008KT 17/03 A2986 RMK A01 T01650034  RH  042%=      5-min Rain = 0
KRRS 180255Z 17008KT 16/03 A2986 RMK A01 T01640034  RH  043%=      5-min Rain = 0
KRRS 180300Z 17008KT 16/04 A2986 RMK A01 T01630035  RH  043%=      5-min Rain = 0
KRRS 180305Z 17009KT 16/04 A2985 RMK A01 T01640035  RH  043%=      5-min Rain = 0
KRRS 180310Z 17008KT 16/04 A2986 RMK A01 T01620036  RH  044%=      5-min Rain = 0
KRRS 180315Z 17008KT 16/04 A2986 RMK A01 T01600037  RH  045%=      5-min Rain = 0
KRRS 180320Z 18009KT 16/04 A2986 RMK A01 T01560039  RH  046%=      5-min Rain = 0
KRRS 180325Z 18009KT 15/04 A2986 RMK A01 T01530042  RH  048%=      5-min Rain = 0
KRRS 180330Z 18009KT 15/04 A2987 RMK A01 T01530043  RH  049%=      5-min Rain = 0
KRRS 180335Z 17009KT 15/05 A2987 RMK A01 T01520045  RH  050%=      5-min Rain = 0
KRRS 180340Z 17009KT 15/05 A2987 RMK A01 T01540046  RH  050%=      5-min Rain = 0
KRRS 180345Z 17009KT 16/05 A2987 RMK A01 T01560047  RH  049%=      5-min Rain = 0
KRRS 180350Z 16009KT 16/05 A2987 RMK A01 T01570047  RH  049%=      5-min Rain = 0
KRRS 180355Z 16009KT 16/05 A2986 RMK A01 T01570047  RH  049%=      5-min Rain = 0
KRRS 180400Z 17009KT 16/05 A2986 RMK A01 T01560046  RH  049%=      5-min Rain = 0
KRRS 180405Z 17010KT 16/05 A2986 RMK A01 T01570045  RH  048%=      5-min Rain = 0
KRRS 180410Z 17009KT 16/05 A2986 RMK A01 T01570045  RH  048%=      5-min Rain = 0
KRRS 180415Z 17009KT 16/04 A2986 RMK A01 T01550044  RH  049%=      5-min Rain = 0
KRRS 180420Z 18009KT 15/05 A2986 RMK A01 T01510045  RH  050%=      5-min Rain = 0
KRRS 180425Z 17009KT 15/04 A2986 RMK A01 T01480044  RH  051%=      5-min Rain = 0
KRRS 180430Z 18009KT 15/04 A2986 RMK A01 T01470043  RH  051%=      5-min Rain = 0
KRRS 180435Z 17009KT 15/04 A2986 RMK A01 T01470041  RH  050%=      5-min Rain = 0
KRRS 180440Z 17010KT 15/04 A2985 RMK A01 T01490039  RH  049%=      5-min Rain = 0
KRRS 180445Z 17010KT 15/04 A2985 RMK A01 T01500038  RH  048%=      5-min Rain = 0
KRRS 180450Z 17010KT 15/04 A2986 RMK A01 T01500037  RH  048%=      5-min Rain = 0
KRRS 180455Z 18009KT 15/04 A2986 RMK A01 T01480037  RH  048%=      5-min Rain = 0

Page generated in 0.0242 seconds.